New York, NY (10131)

4:28 PM EST on February 27, 2017 (GMT -0500)
JOEL TRIBECA | | Change Station

Elev 30 ft 40.72 °N, 74.01 °W | Updated 2 minutes ago

Overcast
Overcast
54.0 °F
Feels Like 54.0 °F
N
16.0
Wind Variable Wind from WNW

Today
High -- | Low -- °F
--% Chance of Precip.
Yesterday
High -- | Low -- °F
Precip. -- in
Pressure 30.43 in
Visibility 10.0 miles
Clouds Mostly Cloudy 8000 ft
Overcast 9500 ft
Dew Point 53 °F
Humidity 98%
Rainfall in
Snow Depth Not available.
6:32 AM 5:45 PM
New Moon, 2% visible
METAR KJRB 272115Z 26011KT 240V300 10SM BKN080 OVC095 11/M04 A3037 RMK AO2 SLP304 PWINO FZRANO RVRNO
Pressure 30.43 in
Visibility 10.0 miles
Clouds Mostly Cloudy 8000 ft
Overcast 9500 ft
Dew Point 53 °F
Humidity 98%
Rainfall in
Snow Depth Not available.
6:32 AM 5:45 PM
New Moon, 2% visible
METAR KJRB 272115Z 26011KT 240V300 10SM BKN080 OVC095 11/M04 A3037 RMK AO2 SLP304 PWINO FZRANO RVRNO

Get Your Daily Forecast Email!

Thanks for signing up!

Be on the lookout for a verification email in your inbox.

You'll start receiving the daily forecast at 8 AM.

×

10-Day Weather Forecast

Almanac

Astronomy

Feb. 27, 2017 Rise Set
Actual Time
Civil Twilight
Nautical Twilight
Astronomical Twilight
Moon
Length of Visible Light
Length of Day
Tomorrow will be .
, % of the Moon is Illuminated

Today's Extremes

State Highs State Lows

Community

WunderPhotos

Upload Photos

1,962,540 photos uploaded!

WunderBlog® & News

Nearby

Air Quality

  Air Quality AQ Index Pollutant
Not available.

Snow Depth

Station Depth Elevation

Earthquake Activity

City Distance Mag. Time & Date
Minimum magnitude displayed is 2.5.

Coastal Water Temperatures

Place Temperature

Stations

Nearby Weather Stations

Station Location Temp. Windchill Dew Point Humidity Wind Precip. Elev Updated Type
                   

Watches & Warnings

There are currently no watches in effect.